Time;durP1;ratioP1;P1;durP2;ratioP2;P2;SDS_P1;SDS_P2;PMS_P1;PMS_P2;Temp;Humidity;BMP_temperature;BMP_pressure;BME280_temperature;BME280_humidity;BME280_pressure;Samples;Min_cycle;Max_cycle;Signal;HPM_P1;HPM_P2
2022/04/06 00:01:13;;;;;;;7.63;6.90;;;;;;;9.41;100.00;99223.16;4994942;28;20381;-62
2022/04/06 00:03:38;;;;;;;7.23;6.63;;;;;;;9.31;100.00;99229.78;5001445;28;20227;-63
2022/04/06 00:06:03;;;;;;;7.13;6.43;;;;;;;9.34;100.00;99227.84;4995492;28;20171;-63
2022/04/06 00:08:28;;;;;;;8.77;7.90;;;;;;;9.35;100.00;99221.81;4994693;28;20183;-63
2022/04/06 00:10:54;;;;;;;8.30;7.50;;;;;;;9.25;100.00;99220.72;4987637;28;20647;-63
2022/04/06 00:13:19;;;;;;;7.90;7.20;;;;;;;9.12;100.00;99225.00;5004030;28;20191;-63
2022/04/06 00:15:44;;;;;;;8.47;7.67;;;;;;;9.08;100.00;99221.81;4995779;28;20691;-62
2022/04/06 00:18:10;;;;;;;8.70;7.80;;;;;;;9.01;100.00;99225.66;4995506;28;20206;-61
2022/04/06 00:20:35;;;;;;;8.60;7.80;;;;;;;8.96;100.00;99222.56;4989743;28;20285;-62
2022/04/06 00:23:01;;;;;;;9.03;8.13;;;;;;;8.87;100.00;99216.25;4988374;28;20676;-62
2022/04/06 00:25:26;;;;;;;8.43;7.60;;;;;;;8.94;100.00;99221.81;4995141;28;20191;-62
2022/04/06 00:27:51;;;;;;;8.83;8.03;;;;;;;8.92;100.00;99218.53;4994093;28;20221;-63
2022/04/06 00:30:17;;;;;;;9.43;8.50;;;;;;;8.91;100.00;99207.44;4987362;28;20637;-62
2022/04/06 00:32:42;;;;;;;9.40;8.50;;;;;;;8.93;100.00;99202.22;4986414;28;20196;-64
2022/04/06 00:37:51;;;;;;;8.60;7.80;;;;;;;8.79;100.00;99205.66;4975881;28;20637;-64
2022/04/06 00:40:19;;;;;;;9.73;8.83;;;;;;;8.91;100.00;99194.63;4969785;28;20528;-65
2022/04/06 00:42:46;;;;;;;9.83;8.83;;;;;;;8.93;100.00;99191.97;4993282;28;20647;-64
2022/04/06 00:45:12;;;;;;;8.93;8.03;;;;;;;8.98;100.00;99200.19;4993418;28;20222;-64
2022/04/06 00:47:37;;;;;;;9.77;8.77;;;;;;;8.97;100.00;99199.38;4995090;28;20216;-64
2022/04/06 00:50:04;;;;;;;10.10;9.10;;;;;;;9.00;100.00;99180.41;4990546;28;20697;-64
2022/04/06 00:52:30;;;;;;;10.63;9.57;;;;;;;9.00;100.00;99183.78;5009866;28;20199;-63
2022/04/06 00:54:56;;;;;;;9.87;8.93;;;;;;;8.99;100.00;99196.72;4993339;28;20175;-64
2022/04/06 00:57:21;;;;;;;11.07;9.97;;;;;;;9.15;100.00;99183.75;5009973;28;20946;-61
2022/04/06 00:59:47;;;;;;;10.80;9.70;;;;;;;9.16;100.00;99180.25;4994918;28;20221;-63
2022/04/06 01:02:13;;;;;;;10.97;9.87;;;;;;;9.12;100.00;99176.25;4999505;28;20723;-62
2022/04/06 01:04:39;;;;;;;13.27;10.43;;;;;;;9.14;100.00;99177.81;4994557;28;20171;-62
2022/04/06 01:07:04;;;;;;;11.10;10.00;;;;;;;9.18;100.00;99174.13;4994990;28;20179;-63
2022/04/06 01:09:31;;;;;;;10.77;9.67;;;;;;;9.07;100.00;99163.72;4994789;28;20517;-63
2022/04/06 01:11:57;;;;;;;13.53;10.60;;;;;;;9.09;100.00;99161.03;4986341;28;20326;-63
2022/04/06 01:14:23;;;;;;;12.87;10.80;;;;;;;9.16;100.00;99157.16;4994891;28;20218;-64
2022/04/06 01:17:04;;;;;;;12.43;11.13;;;;;;;9.12;100.00;99151.41;4994521;28;20286;-63
2022/04/06 01:19:41;;;;;;;12.00;10.90;;;;;;;9.12;100.00;99151.41;4994472;28;20214;-63
2022/04/06 01:22:11;;;;;;;12.37;11.17;;;;;;;9.13;100.00;99152.22;4980593;28;20306;-62
2022/04/06 01:24:38;;;;;;;13.20;11.80;;;;;;;9.19;100.00;99144.13;4994156;28;20195;-64
2022/04/06 01:27:04;;;;;;;11.13;10.03;;;;;;;9.18;100.00;99145.88;4992946;28;20191;-61
2022/04/06 01:29:30;;;;;;;12.17;10.73;;;;;;;9.19;100.00;99132.16;4994582;28;20186;-62
2022/04/06 01:31:55;;;;;;;15.07;11.63;;;;;;;9.23;100.00;99135.34;4998538;28;20226;-62
2022/04/06 01:34:20;;;;;;;13.97;11.50;;;;;;;9.24;100.00;99138.72;4992699;28;20176;-61
2022/04/06 01:36:46;;;;;;;11.63;10.47;;;;;;;9.25;100.00;99140.38;4994749;28;20172;-61
2022/04/06 01:39:11;;;;;;;11.83;10.63;;;;;;;9.32;100.00;99141.63;4985710;28;20216;-61
2022/04/06 01:41:37;;;;;;;11.00;9.93;;;;;;;9.29;100.00;99134.94;4985230;28;20318;-63
2022/04/06 01:44:05;;;;;;;11.73;10.53;;;;;;;9.30;100.00;99138.31;4977130;28;20176;-62
2022/04/06 01:46:30;;;;;;;12.10;10.90;;;;;;;9.30;100.00;99136.59;4973263;28;20271;-62
2022/04/06 01:54:23;;;;;;;11.73;10.57;;;;;;;9.36;100.00;99130.22;4994176;28;20186;-63
2022/04/06 01:56:49;;;;;;;11.80;10.50;;;;;;;9.32;100.00;99128.78;4993316;28;20183;-63
2022/04/06 01:59:15;;;;;;;11.43;10.17;;;;;;;9.28;100.00;99122.19;4993630;28;20203;-62
2022/04/06 02:01:41;;;;;;;12.03;10.93;;;;;;;9.40;100.00;99123.16;4982830;28;20233;-62
2022/04/06 02:04:14;;;;;;;11.20;10.10;;;;;;;9.32;100.00;99126.22;4990673;28;20314;-62
2022/04/06 02:06:40;;;;;;;10.77;9.77;;;;;;;9.41;100.00;99125.59;4993768;28;20191;-62
2022/04/06 02:09:05;;;;;;;12.10;9.97;;;;;;;9.43;100.00;99117.81;4991596;28;20179;-63
2022/04/06 02:11:31;;;;;;;12.50;10.20;;;;;;;9.45;100.00;99121.94;4983090;28;20241;-62
2022/04/06 02:13:57;;;;;;;11.63;10.53;;;;;;;9.41;100.00;99114.53;4987431;28;20246;-63
2022/04/06 02:16:23;;;;;;;11.60;10.50;;;;;;;9.40;100.00;99108.56;4993536;28;20186;-63
2022/04/06 02:18:49;;;;;;;10.67;9.63;;;;;;;9.36;100.00;99113.09;4993235;28;20199;-63
2022/04/06 02:21:14;;;;;;;11.30;10.07;;;;;;;9.28;100.00;99110.19;4975345;28;20686;-63
2022/04/06 02:23:39;;;;;;;11.10;10.00;;;;;;;9.09;100.00;99105.44;4992119;28;20200;-63
2022/04/06 02:26:05;;;;;;;11.93;9.67;;;;;;;9.14;100.00;99105.13;4993071;28;20230;-62
2022/04/06 02:28:30;;;;;;;10.30;9.30;;;;;;;9.11;100.00;99110.47;4991531;28;20180;-62
2022/04/06 02:30:55;;;;;;;12.03;9.20;;;;;;;9.26;100.00;99112.03;4990374;28;20227;-62
2022/04/06 02:33:21;;;;;;;9.97;8.93;;;;;;;9.40;100.00;99113.69;5001005;28;20178;-62
2022/04/06 02:35:46;;;;;;;9.87;8.97;;;;;;;9.42;100.00;99111.03;4991830;28;20253;-62
2022/04/06 02:38:11;;;;;;;9.20;8.30;;;;;;;9.47;100.00;99116.69;4990568;28;20215;-62
2022/04/06 02:40:36;;;;;;;9.47;8.53;;;;;;;9.48;100.00;99116.59;4982736;28;20266;-62
2022/04/06 02:43:02;;;;;;;9.30;7.90;;;;;;;9.48;100.00;99114.03;4979851;28;20282;-63
2022/04/06 02:45:27;;;;;;;8.63;7.80;;;;;;;9.56;100.00;99120.41;4993099;28;20194;-63
2022/04/06 02:47:52;;;;;;;8.57;7.77;;;;;;;9.58;100.00;99121.13;4992892;28;20178;-62
2022/04/06 02:50:17;;;;;;;11.67;8.20;;;;;;;9.44;100.00;99122.84;4982830;28;20215;-62
2022/04/06 02:52:43;;;;;;;8.43;7.63;;;;;;;9.47;100.00;99127.78;4986195;28;20202;-63
2022/04/06 02:55:12;;;;;;;8.37;7.57;;;;;;;9.40;100.00;99120.56;4973130;28;20189;-63
2022/04/06 02:57:38;;;;;;;8.53;7.63;;;;;;;9.50;100.00;99122.44;4973447;28;20180;-62
2022/04/06 03:00:04;;;;;;;7.23;6.63;;;;;;;9.46;100.00;99118.41;4977861;28;20191;-62
2022/04/06 03:02:29;;;;;;;9.63;6.80;;;;;;;9.55;100.00;99124.72;4949642;28;20239;-63
2022/04/06 03:04:56;;;;;;;11.07;7.67;;;;;;;9.51;100.00;99120.69;5005097;28;20179;-63
2022/04/06 03:07:21;;;;;;;7.70;6.93;;;;;;;9.52;100.00;99112.88;5008549;28;20186;-62
2022/04/06 03:09:47;;;;;;;8.47;7.60;;;;;;;9.58;100.00;99116.81;5012765;28;20178;-63
2022/04/06 03:12:13;;;;;;;8.80;6.97;;;;;;;9.69;100.00;99118.66;5001040;28;20237;-62
2022/04/06 03:14:38;;;;;;;7.93;6.73;;;;;;;9.67;100.00;99111.06;5010739;28;20197;-62
2022/04/06 03:17:04;;;;;;;8.83;6.87;;;;;;;9.56;100.00;99107.56;5000487;28;20223;-62
2022/04/06 03:19:29;;;;;;;7.70;6.53;;;;;;;9.50;100.00;99116.47;5012066;28;20278;-62
2022/04/06 03:21:54;;;;;;;8.80;6.60;;;;;;;9.52;100.00;99110.31;4995466;28;20215;-62
2022/04/06 03:24:20;;;;;;;8.47;5.90;;;;;;;9.56;100.00;99112.69;4992159;28;20330;-63
2022/04/06 03:26:45;;;;;;;9.93;6.60;;;;;;;9.60;99.73;99106.41;4992580;28;20175;-62
2022/04/06 03:29:10;;;;;;;8.53;6.17;;;;;;;9.75;99.45;99114.84;5007567;28;20183;-63
2022/04/06 03:31:37;;;;;;;8.27;6.23;;;;;;;9.84;98.22;99107.34;4945131;28;20578;-62
2022/04/06 03:34:03;;;;;;;8.77;6.03;;;;;;;9.82;97.39;99109.22;4991280;28;20190;-63
2022/04/06 03:36:28;;;;;;;8.93;6.67;;;;;;;9.90;96.77;99113.00;4992087;28;20655;-62
2022/04/06 03:38:53;;;;;;;11.83;5.97;;;;;;;9.93;95.83;99107.66;4990980;28;20203;-62
2022/04/06 03:41:19;;;;;;;7.63;5.83;;;;;;;9.90;95.65;99106.13;4984106;28;20261;-62
2022/04/06 03:43:44;;;;;;;7.70;5.40;;;;;;;9.82;95.83;99105.81;4990463;28;20333;-62
2022/04/06 03:46:09;;;;;;;6.93;5.83;;;;;;;9.79;96.19;99106.84;4992079;28;20178;-63
2022/04/06 03:48:35;;;;;;;10.33;5.77;;;;;;;9.63;94.16;99103.66;4994245;28;20183;-62
2022/04/06 03:51:00;;;;;;;7.77;5.30;;;;;;;9.77;93.34;99107.88;4999937;28;20774;-63
2022/04/06 03:53:26;;;;;;;9.37;5.37;;;;;;;9.71;94.07;99111.66;4995000;28;20178;-62
2022/04/06 03:55:51;;;;;;;8.63;5.87;;;;;;;9.61;93.88;99108.91;5008034;28;20218;-63
2022/04/06 03:58:17;;;;;;;7.27;5.17;;;;;;;9.68;92.44;99110.13;5010349;28;20230;-63
2022/04/06 04:00:43;;;;;;;7.33;5.43;;;;;;;9.65;92.86;99105.22;4997167;28;20242;-64
2022/04/06 04:03:09;;;;;;;10.37;5.60;;;;;;;9.73;92.99;99107.25;4990239;28;20282;-63
2022/04/06 04:05:34;;;;;;;9.40;5.37;;;;;;;9.73;92.32;99104.69;4991948;28;20183;-63
2022/04/06 04:08:00;;;;;;;7.90;5.27;;;;;;;9.75;92.52;99108.00;4991742;28;20180;-63
2022/04/06 04:10:25;;;;;;;8.20;5.87;;;;;;;9.68;92.07;99110.13;4999360;28;20234;-63
2022/04/06 04:12:50;;;;;;;11.83;5.30;;;;;;;9.73;91.45;99114.97;5009808;28;20179;-63
2022/04/06 04:15:15;;;;;;;9.80;4.93;;;;;;;9.75;91.24;99113.13;4992807;28;20225;-62
2022/04/06 04:17:41;;;;;;;12.40;5.50;;;;;;;9.73;91.16;99106.44;4991883;28;20191;-62
2022/04/06 04:20:07;;;;;;;10.63;4.77;;;;;;;9.66;89.99;99103.44;4981587;28;20176;-62
2022/04/06 04:22:32;;;;;;;6.77;5.13;;;;;;;9.65;89.29;99101.78;4971145;28;20624;-63
2022/04/06 04:24:57;;;;;;;6.70;4.13;;;;;;;9.49;88.90;99099.47;4970657;28;20180;-63
2022/04/06 04:27:23;;;;;;;8.13;5.13;;;;;;;9.59;88.56;99100.47;4972429;28;20183;-62
2022/04/06 04:29:48;;;;;;;7.47;4.83;;;;;;;9.58;88.54;99111.66;4972542;28;20562;-62
2022/04/06 04:32:15;;;;;;;7.27;5.87;;;;;;;9.62;88.79;99107.16;4963792;28;20220;-63
2022/04/06 04:34:40;;;;;;;8.23;5.33;;;;;;;9.59;88.91;99103.03;4995063;28;20214;-64
2022/04/06 04:37:06;;;;;;;6.90;4.63;;;;;;;9.45;89.30;99103.13;4995247;28;20230;-62
2022/04/06 04:39:31;;;;;;;9.53;5.50;;;;;;;9.22;90.16;99094.38;4994137;28;20233;-63
2022/04/06 04:41:57;;;;;;;7.60;5.10;;;;;;;9.27;91.07;99098.28;4970898;28;20227;-62
2022/04/06 04:44:22;;;;;;;9.80;5.10;;;;;;;9.22;89.29;99096.94;4995512;28;20172;-64
2022/04/06 04:46:47;;;;;;;6.93;4.77;;;;;;;9.15;89.16;99089.66;4993779;28;20180;-62
2022/04/06 04:49:13;;;;;;;9.17;5.00;;;;;;;9.24;88.84;99108.75;4993281;28;20242;-64
2022/04/06 04:51:38;;;;;;;7.47;4.63;;;;;;;9.32;89.37;99101.38;4973938;28;20239;-63
2022/04/06 04:54:04;;;;;;;9.67;4.63;;;;;;;9.31;89.17;99101.47;4978142;28;20700;-63
2022/04/06 04:56:30;;;;;;;5.77;4.10;;;;;;;9.31;88.13;99106.59;4974408;28;20180;-62
2022/04/06 04:58:56;;;;;;;7.47;4.30;;;;;;;9.09;87.45;99102.03;4979696;28;20203;-62
2022/04/06 05:01:21;;;;;;;8.63;5.07;;;;;;;9.25;86.59;99099.31;4984402;28;20375;-63
2022/04/06 05:03:47;;;;;;;14.43;5.20;;;;;;;9.30;87.27;99100.66;4987671;28;20227;-63
2022/04/06 05:06:13;;;;;;;8.87;4.47;;;;;;;9.32;87.05;99093.66;4994515;28;20195;-63
2022/04/06 05:08:38;;;;;;;9.57;4.37;;;;;;;9.37;86.65;99096.75;4993660;28;20175;-63
2022/04/06 05:11:04;;;;;;;11.43;4.90;;;;;;;9.41;86.05;99096.56;4983290;28;20298;-63
2022/04/06 05:13:29;;;;;;;10.07;4.80;;;;;;;9.40;85.55;99107.75;4985207;28;20187;-63
2022/04/06 05:15:54;;;;;;;9.17;4.60;;;;;;;9.29;85.38;99103.31;4994420;28;20179;-63
2022/04/06 05:18:19;;;;;;;8.10;4.33;;;;;;;9.32;85.49;99103.94;4993183;28;20685;-62
2022/04/06 05:20:45;;;;;;;7.73;4.40;;;;;;;9.23;85.23;99099.41;5002135;28;20245;-62
2022/04/06 05:23:10;;;;;;;8.33;4.70;;;;;;;9.27;85.48;99098.28;5003823;28;20235;-63
2022/04/06 05:25:35;;;;;;;8.33;4.30;;;;;;;9.32;85.33;99101.38;4994751;28;20183;-63
2022/04/06 05:28:01;;;;;;;8.87;4.73;;;;;;;9.31;84.96;99109.97;4994416;28;20605;-63
2022/04/06 05:30:30;;;;;;;10.87;4.13;;;;;;;9.30;84.36;99105.78;4985554;28;20222;-63
2022/04/06 05:32:57;;;;;;;9.23;4.33;;;;;;;9.40;84.96;99102.63;4976383;28;20180;-63
2022/04/06 05:35:24;;;;;;;9.17;4.10;;;;;;;9.42;84.88;99103.34;4974674;28;20173;-64
2022/04/06 05:37:49;;;;;;;9.00;4.40;;;;;;;9.13;84.67;99099.19;4974510;28;20179;-65
2022/04/06 05:40:17;;;;;;;10.00;4.07;;;;;;;9.24;85.43;99098.50;4966842;28;20184;-63
2022/04/06 05:42:42;;;;;;;7.57;4.00;;;;;;;9.35;85.05;99103.75;5007355;28;20595;-63
2022/04/06 05:45:08;;;;;;;6.03;3.93;;;;;;;9.50;84.83;99096.78;4992738;28;20179;-64
2022/04/06 05:47:35;;;;;;;6.13;3.80;;;;;;;9.42;84.43;99091.31;4994059;28;20211;-63
2022/04/06 05:50:01;;;;;;;8.50;4.20;;;;;;;9.42;84.02;99093.88;4992547;28;20186;-63
2022/04/06 05:52:27;;;;;;;8.03;4.20;;;;;;;9.44;83.44;99093.78;4999182;28;20267;-62
2022/04/06 05:54:52;;;;;;;7.40;3.43;;;;;;;9.56;83.38;99095.53;4992065;28;20311;-64
2022/04/06 05:57:19;;;;;;;5.47;4.17;;;;;;;9.48;82.45;99098.63;4994235;28;20171;-63
2022/04/06 05:59:45;;;;;;;6.50;4.13;;;;;;;9.33;81.31;99095.31;5008627;28;20667;-63
2022/04/06 06:02:10;;;;;;;10.97;3.80;;;;;;;9.40;81.04;99107.75;4984092;28;20325;-64
2022/04/06 06:04:38;;;;;;;7.50;3.83;;;;;;;9.25;80.03;99094.16;4992984;28;20314;-62
2022/04/06 06:07:05;;;;;;;10.83;3.53;;;;;;;9.26;77.82;99106.09;4993746;28;20171;-63
2022/04/06 06:09:30;;;;;;;9.67;3.53;;;;;;;9.40;77.80;99097.47;4992219;28;20175;-63
2022/04/06 06:11:56;;;;;;;7.67;3.80;;;;;;;9.39;77.07;99099.25;4997589;28;20643;-63
2022/04/06 06:14:21;;;;;;;6.57;3.70;;;;;;;9.57;76.60;99099.75;4991632;28;20211;-62
2022/04/06 06:16:47;;;;;;;7.83;2.90;;;;;;;9.58;75.21;99105.72;4993408;28;20172;-63
2022/04/06 06:19:12;;;;;;;8.97;3.77;;;;;;;9.55;73.78;99099.06;4993301;28;20651;-63
2022/04/06 06:21:37;;;;;;;7.87;3.27;;;;;;;9.48;74.12;99100.38;4993540;28;20222;-63
2022/04/06 06:24:06;;;;;;;8.73;3.50;;;;;;;9.47;74.13;99102.09;4987666;28;20195;-63
2022/04/06 06:26:33;;;;;;;4.90;2.93;;;;;;;9.39;73.89;99099.25;4991448;28;20187;-63
2022/04/06 06:28:58;;;;;;;7.73;3.07;;;;;;;9.56;73.97;99103.22;4990760;28;20188;-64
2022/04/06 06:31:24;;;;;;;8.57;2.67;;;;;;;9.66;73.75;99095.75;4984933;28;20231;-62
2022/04/06 06:33:49;;;;;;;8.07;3.60;;;;;;;9.78;72.84;99102.63;4990907;28;20312;-66
2022/04/06 06:36:15;;;;;;;9.00;3.13;;;;;;;9.99;73.83;99102.91;4954736;28;20184;-63
2022/04/06 06:38:41;;;;;;;8.23;3.37;;;;;;;10.25;72.21;99096.94;4990323;28;20278;-63
2022/04/06 06:41:06;;;;;;;6.07;2.90;;;;;;;10.48;71.12;99103.06;4991133;28;20222;-63
2022/04/06 06:43:31;;;;;;;8.07;2.87;;;;;;;10.61;71.09;99097.88;4999600;28;20666;-63
2022/04/06 06:45:57;;;;;;;6.70;3.70;;;;;;;10.74;69.53;99102.97;4991345;28;20225;-63
2022/04/06 06:48:22;;;;;;;13.10;3.13;;;;;;;10.77;68.37;99102.78;4993166;28;20600;-63
2022/04/06 06:50:47;;;;;;;8.43;4.40;;;;;;;10.69;68.51;99099.91;4988833;28;20237;-65
2022/04/06 06:53:12;;;;;;;3.37;2.37;;;;;;;10.79;67.89;99101.72;4976916;28;20267;-64
2022/04/06 06:55:38;;;;;;;9.23;2.80;;;;;;;11.05;66.88;99093.06;4973345;28;20549;-64
2022/04/06 06:58:03;;;;;;;8.70;2.97;;;;;;;11.04;66.77;99096.56;4973146;28;20203;-64
2022/04/06 07:00:29;;;;;;;6.73;2.97;;;;;;;11.25;65.21;99104.47;4956523;28;20229;-64
2022/04/06 07:02:55;;;;;;;7.03;2.97;;;;;;;11.36;64.35;99106.25;4984432;28;20247;-64
2022/04/06 07:05:20;;;;;;;4.83;2.40;;;;;;;11.44;65.17;99097.03;4973292;28;20172;-63
2022/04/06 07:07:57;;;;;;;7.67;3.80;;;;;;;11.55;63.89;99096.22;4973374;28;20670;-64
2022/04/06 07:10:23;;;;;;;8.80;3.60;;;;;;;11.87;63.29;99099.88;4963476;28;20238;-64
2022/04/06 07:12:50;;;;;;;12.60;3.73;;;;;;;12.22;63.64;99099.81;4982488;28;20282;-64
2022/04/06 07:15:16;;;;;;;7.77;3.10;;;;;;;12.35;61.98;99093.69;4969213;28;20205;-64
2022/04/06 07:17:41;;;;;;;5.83;3.13;;;;;;;12.23;61.55;99096.28;4963023;28;20274;-64
2022/04/06 07:20:07;;;;;;;5.23;3.00;;;;;;;12.30;61.34;99093.22;4963269;28;20188;-64
2022/04/06 07:22:33;;;;;;;8.73;3.73;;;;;;;12.35;59.97;99091.09;4972149;28;20194;-65
2022/04/06 07:24:58;;;;;;;8.80;3.77;;;;;;;12.21;60.64;99089.59;4970258;28;20184;-63
2022/04/06 07:27:24;;;;;;;6.87;3.60;;;;;;;12.17;60.43;99083.03;4972057;28;20270;-64
2022/04/06 07:29:49;;;;;;;6.33;3.27;;;;;;;12.11;60.95;99077.41;4972062;28;20647;-65
2022/04/06 07:32:14;;;;;;;8.53;3.33;;;;;;;12.25;60.68;99070.38;4933843;28;20275;-64
2022/04/06 07:34:39;;;;;;;8.67;4.07;;;;;;;12.15;60.07;99064.31;4971887;28;20184;-63
2022/04/06 07:37:05;;;;;;;9.17;4.13;;;;;;;12.11;59.30;99068.88;4972345;28;20211;-64
2022/04/06 07:39:30;;;;;;;5.67;3.37;;;;;;;12.18;59.05;99061.47;4972164;28;20279;-64
2022/04/06 07:41:58;;;;;;;9.27;3.93;;;;;;;12.03;59.54;99063.50;4963844;28;20504;-63
2022/04/06 07:44:24;;;;;;;6.37;3.27;;;;;;;12.15;58.74;99064.31;4972088;28;20701;-63
2022/04/06 07:46:50;;;;;;;8.47;3.57;;;;;;;11.89;58.01;99061.94;4971092;28;20192;-64
2022/04/06 07:49:16;;;;;;;6.63;3.80;;;;;;;11.84;58.17;99056.34;4972345;28;20180;-65
2022/04/06 07:51:41;;;;;;;5.90;3.53;;;;;;;11.79;57.79;99054.09;4974985;28;20377;-63
2022/04/06 07:54:07;;;;;;;5.77;3.27;;;;;;;11.77;57.69;99058.53;4970184;28;20273;-64
2022/04/06 07:56:32;;;;;;;6.23;3.47;;;;;;;11.55;57.72;99062.75;4970739;28;20731;-65
2022/04/06 07:58:57;;;;;;;7.17;3.70;;;;;;;11.41;58.70;99053.50;4970387;28;20793;-65
2022/04/06 08:01:23;;;;;;;7.07;3.30;;;;;;;11.75;58.82;99052.69;4971902;28;20231;-64
2022/04/06 08:03:48;;;;;;;7.10;3.23;;;;;;;11.92;57.18;99059.94;4976850;28;20235;-64
2022/04/06 08:06:13;;;;;;;6.90;3.10;;;;;;;11.70;57.88;99058.19;4970526;28;20603;-64
2022/04/06 08:08:39;;;;;;;4.50;3.07;;;;;;;11.68;57.19;99060.06;4973354;28;20274;-66
2022/04/06 08:11:05;;;;;;;6.33;3.63;;;;;;;11.58;57.52;99057.34;4974013;28;20377;-65
2022/04/06 08:13:32;;;;;;;7.13;3.20;;;;;;;11.55;59.28;99057.59;4994675;28;20179;-64
2022/04/06 08:15:58;;;;;;;7.33;3.60;;;;;;;11.63;59.36;99068.16;4993866;28;20220;-63
2022/04/06 08:18:23;;;;;;;5.70;3.20;;;;;;;11.62;59.08;99060.53;4994406;28;20565;-64
2022/04/06 08:20:49;;;;;;;5.83;3.70;;;;;;;11.67;59.10;99055.03;4981182;28;20231;-63
2022/04/06 08:23:17;;;;;;;5.53;3.83;;;;;;;11.66;59.59;99058.53;4993483;28;20203;-63
2022/04/06 08:25:43;;;;;;;16.53;8.77;;;;;;;11.86;60.21;99065.56;4995583;28;20179;-63
2022/04/06 08:28:08;;;;;;;9.13;3.93;;;;;;;11.97;60.16;99059.63;4993364;28;20187;-64
2022/04/06 08:30:39;;;;;;;7.70;3.50;;;;;;;12.11;60.15;99056.00;4989925;28;20230;-63
2022/04/06 08:33:05;;;;;;;4.83;3.27;;;;;;;11.98;59.56;99050.94;4993867;28;20263;-62
2022/04/06 08:35:30;;;;;;;9.02;4.03;;;;;;;12.25;57.68;99053.16;4993020;28;20520;-65
2022/04/06 08:37:55;;;;;;;5.00;3.27;;;;;;;12.08;58.68;99053.63;4980553;28;20192;-63
2022/04/06 08:40:21;;;;;;;7.33;3.23;;;;;;;12.21;57.94;99051.75;4981566;28;20220;-63
2022/04/06 08:42:47;;;;;;;10.57;3.47;;;;;;;12.31;56.91;99059.59;4994532;28;20176;-65
2022/04/06 08:45:12;;;;;;;9.20;4.03;;;;;;;12.98;55.81;99044.00;4991710;28;20180;-64
2022/04/06 08:47:37;;;;;;;7.27;2.90;;;;;;;13.20;53.01;99049.03;5012257;28;20660;-66
2022/04/06 08:50:05;;;;;;;11.77;3.83;;;;;;;13.08;52.21;99053.47;5010534;28;20638;-65
2022/04/06 08:52:35;;;;;;;5.97;2.90;;;;;;;13.08;51.99;99048.28;5006310;28;20192;-64
2022/04/06 08:55:01;;;;;;;7.03;2.93;;;;;;;13.82;48.88;99050.88;5006786;28;20214;-64
2022/04/06 08:57:27;;;;;;;6.47;2.73;;;;;;;13.74;48.23;99040.38;4991285;28;20245;-64
2022/04/06 08:59:53;;;;;;;8.27;3.33;;;;;;;13.69;47.83;99041.59;5011794;28;20298;-65
2022/04/06 09:02:19;;;;;;;5.43;2.73;;;;;;;13.68;48.11;99037.34;5002939;28;20317;-64
2022/04/06 09:04:52;;;;;;;5.07;2.77;;;;;;;13.44;48.56;99035.06;5005345;28;20732;-64
2022/04/06 09:07:20;;;;;;;5.23;2.43;;;;;;;13.95;47.25;99037.72;5013489;28;20278;-62
2022/04/06 09:09:51;;;;;;;4.17;2.40;;;;;;;14.04;47.21;99035.16;5010559;28;20175;-65
2022/04/06 09:12:22;;;;;;;5.17;2.60;;;;;;;13.98;46.96;99025.34;4984482;28;20254;-65
2022/04/06 09:14:48;;;;;;;3.73;2.57;;;;;;;13.27;48.49;99023.50;5012305;28;20179;-65
2022/04/06 09:17:18;;;;;;;7.20;2.97;;;;;;;13.35;49.00;99025.47;5014730;28;20650;-64
2022/04/06 09:19:49;;;;;;;5.90;2.63;;;;;;;13.47;49.25;99028.81;5008257;28;20200;-63
2022/04/06 09:22:15;;;;;;;6.07;2.90;;;;;;;13.21;48.89;99030.03;4983794;28;20779;-64
2022/04/06 09:24:40;;;;;;;6.27;3.23;;;;;;;13.39;50.43;99025.09;5012362;28;20202;-64
2022/04/06 09:27:05;;;;;;;8.67;3.23;;;;;;;13.33;49.91;99017.84;5014997;28;20183;-63
2022/04/06 09:29:31;;;;;;;5.40;2.87;;;;;;;13.32;50.66;99026.56;5015035;28;20626;-64
2022/04/06 09:32:08;;;;;;;6.77;3.57;;;;;;;13.12;50.42;99025.59;5002383;28;20219;-66
2022/04/06 09:34:34;;;;;;;8.13;3.40;;;;;;;13.05;50.61;99024.50;4994336;28;20226;-63
2022/04/06 09:37:26;;;;;;;5.63;3.40;;;;;;;13.16;51.64;99016.69;4994643;28;20175;-64
2022/04/06 09:39:51;;;;;;;5.30;3.65;;;;;;;13.44;51.74;99023.91;5008649;28;20978;-64
2022/04/06 09:42:23;;;;;;;8.07;3.33;;;;;;;13.59;51.39;99019.22;4983304;28;20238;-64
2022/04/06 09:47:40;;;;;;;7.53;3.60;;;;;;;13.05;53.01;99019.31;4995599;28;20201;-64
2022/04/06 09:50:20;;;;;;;7.70;3.60;;;;;;;13.18;54.14;99011.38;4999855;28;20565;-64
2022/04/06 09:52:46;;;;;;;8.03;3.10;;;;;;;13.45;53.04;99015.22;4991648;28;20204;-63
2022/04/06 09:55:14;;;;;;;6.93;3.60;;;;;;;13.59;52.68;99024.41;5006334;28;20191;-63
2022/04/06 09:57:45;;;;;;;6.47;3.23;;;;;;;13.50;51.92;99011.28;5010078;28;20286;-65
2022/04/06 10:00:16;;;;;;;6.97;4.30;;;;;;;13.44;52.65;99009.22;5002954;28;20273;-64
2022/04/06 10:02:44;;;;;;;8.20;3.87;;;;;;;13.64;53.28;99015.28;4998635;28;20176;-64
2022/04/06 10:05:13;;;;;;;8.57;4.40;;;;;;;14.00;52.88;99007.13;5006827;28;20725;-63
2022/04/06 10:07:41;;;;;;;8.40;4.47;;;;;;;14.11;51.14;99006.19;5011730;28;20713;-64
2022/04/06 10:10:06;;;;;;;6.20;3.57;;;;;;;14.65;50.14;98996.34;4985062;28;20190;-64
2022/04/06 10:12:33;;;;;;;7.87;4.40;;;;;;;14.91;48.37;98995.72;5012069;28;20237;-63
2022/04/06 10:15:01;;;;;;;7.57;4.10;;;;;;;15.16;48.04;98987.38;5012678;28;20269;-62
2022/04/06 10:17:29;;;;;;;8.00;4.63;;;;;;;15.54;47.44;99002.94;5007174;28;20199;-69
2022/04/06 10:20:21;;;;;;;8.80;3.90;;;;;;;15.74;45.31;98997.66;4991881;28;20183;-68
2022/04/06 10:22:57;;;;;;;4.53;3.53;;;;;;;16.33;44.13;98985.19;4965002;28;20219;-67
2022/04/06 10:25:58;;;;;;;6.90;4.10;;;;;;;15.57;46.08;98984.50;4992107;28;20267;-65
2022/04/06 10:28:23;;;;;;;5.83;3.47;;;;;;;15.45;46.23;98986.44;4996073;28;20199;-65
2022/04/06 10:31:18;;;;;;;9.50;3.47;;;;;;;16.73;44.24;98983.06;4977993;28;20321;-66
2022/04/06 10:33:45;;;;;;;6.97;3.60;;;;;;;16.77;42.33;98976.63;4992303;28;20635;-67
2022/04/06 10:36:17;;;;;;;7.63;3.90;;;;;;;16.02;43.17;98985.53;4993198;28;20183;-64
2022/04/06 10:39:08;;;;;;;5.97;3.40;;;;;;;15.46;44.78;98977.72;4991535;28;20227;-65
2022/04/06 10:41:35;;;;;;;6.83;3.80;;;;;;;14.46;47.01;98966.06;4981869;28;20317;-65
2022/04/06 10:44:00;;;;;;;6.80;3.63;;;;;;;14.33;48.51;98964.56;4987209;28;20190;-63
2022/04/06 10:46:35;;;;;;;7.33;3.90;;;;;;;14.08;48.90;98973.66;4992921;28;20540;-65
2022/04/06 10:49:10;;;;;;;6.47;3.73;;;;;;;14.35;48.57;98964.41;4991391;28;20202;-65
2022/04/06 10:51:56;;;;;;;5.80;3.80;;;;;;;14.13;49.40;98968.91;4994618;28;20653;-65
2022/04/06 10:54:22;;;;;;;8.57;3.90;;;;;;;14.20;49.87;98964.81;4992974;28;20253;-65
2022/04/06 10:56:50;;;;;;;9.27;3.90;;;;;;;14.08;49.97;98962.47;4991232;28;20666;-65
2022/04/06 10:59:17;;;;;;;9.97;4.03;;;;;;;13.94;50.20;98953.34;4997457;28;20199;-64
2022/04/06 11:01:45;;;;;;;6.93;3.30;;;;;;;13.98;49.39;98959.88;4993366;28;20221;-62
2022/04/06 11:04:24;;;;;;;7.67;4.07;;;;;;;13.88;48.63;98963.28;5009129;28;20223;-62
2022/04/06 11:06:59;;;;;;;4.53;3.10;;;;;;;14.15;49.01;98958.41;5010073;28;20185;-63
2022/04/06 11:12:18;;;;;;;6.13;3.60;;;;;;;14.60;48.45;98957.03;4961708;28;20238;-65
2022/04/06 11:14:45;;;;;;;5.53;3.47;;;;;;;14.47;48.46;98950.38;4988894;28;20187;-64
2022/04/06 11:17:42;;;;;;;5.83;3.60;;;;;;;14.60;49.43;98944.09;4979194;28;20231;-64
2022/04/06 11:20:19;;;;;;;5.80;3.40;;;;;;;14.49;48.34;98940.72;4980532;28;20274;-65
2022/04/06 11:22:56;;;;;;;6.70;3.97;;;;;;;14.09;49.25;98941.69;4976293;28;20184;-64
2022/04/06 11:25:25;;;;;;;8.23;3.87;;;;;;;14.24;49.42;98938.69;4971440;28;20203;-64
2022/04/06 11:27:51;;;;;;;7.17;3.33;;;;;;;14.57;49.24;98936.63;4971473;28;20196;-66
2022/04/06 11:30:17;;;;;;;7.07;3.17;;;;;;;14.93;47.91;98949.81;4941432;28;20559;-65
2022/04/06 11:32:50;;;;;;;5.20;2.70;;;;;;;14.83;46.62;98942.91;4957649;28;20549;-65
2022/04/06 11:35:17;;;;;;;6.07;2.80;;;;;;;15.07;45.69;98945.97;4987437;28;20207;-65
2022/04/06 11:37:47;;;;;;;5.30;3.03;;;;;;;15.05;45.25;98935.75;4987542;28;20188;-66
2022/04/06 11:40:17;;;;;;;6.70;3.10;;;;;;;15.07;45.25;98940.78;4977348;28;20184;-66
2022/04/06 11:42:52;;;;;;;6.67;3.13;;;;;;;14.69;44.45;98944.13;4956706;28;20196;-67
2022/04/06 11:45:20;;;;;;;7.37;2.67;;;;;;;14.77;45.17;98943.47;4975099;28;20662;-65
2022/04/06 11:47:52;;;;;;;2.90;2.50;;;;;;;14.69;45.52;98926.00;4982928;28;20271;-65